Flight Track Log - Related Links

Times and Time Zones

All times are in EDT time to prevent confusion due to time zone crossing. See the UAE18 flight status page for this flight to view local times or setup timezone preferences in your user account.

Time Position Orientation Groundspeed Altitude Reporting Facility
EDT Latitude Longitude Course Direction KTS MPH feet Rate Location/Type
Sat 09:24:00 53.0902 0.0212 100° East  Level Estimated
Sat 09:25:00 53.0632 0.2353 102° East  Level Estimated
Sat 09:26:00 53.0359 0.4491 102° East  Level Estimated
Sat 09:27:00 53.0081 0.6627 102° East  Level Estimated
Sat 09:28:00 52.9799 0.8760 102° East  Level Estimated
Sat 09:29:00 52.9514 1.0890 102° East  Level Estimated
Sat 09:30:00 52.9225 1.3017 103° East  Level Estimated
Sat 09:31:00 52.8932 1.5142 103° East  Level Estimated
Sat 09:32:00 52.8635 1.7263 103° East  Level Estimated
Sat 09:33:00 52.8335 1.9382 103° East  Level Estimated
Sat 09:34:00 52.8031 2.1497 103° East  Level Estimated
Sat 09:35:00 52.7723 2.3610 103° East  Level Estimated
Sat 09:36:00 52.7411 2.5720 104° East  Level Estimated
Sat 09:37:00 52.7095 2.7826 104° East  Level Estimated
Sat 09:38:00 52.6776 2.9930 104° East  Level Estimated
Sat 09:39:00 52.6453 3.2030 104° East  Level Estimated
Sat 09:40:00 52.6127 3.4128 104° East  Level Estimated
Sat 09:41:00 52.5796 3.6222 104° East  Level Estimated
Sat 09:42:00 52.5462 3.8313 105° East  Level Estimated
Sat 09:43:00 52.5125 4.0401 105° East  Level Estimated
Sat 09:44:00 52.4783 4.2485 105° East  Level Estimated
Sat 09:45:00 52.4438 4.4567 105° East  Level Estimated
Sat 09:46:00 52.4090 4.6645 105° East  Level Estimated
Sat 09:47:00 52.3737 4.8720 105° East  Level Estimated
Sat 09:48:00 52.3381 5.0791 106° East  Level Estimated
Sat 09:49:00 52.3022 5.2859 106° East  Level Estimated
Sat 09:50:00 52.2659 5.4924 106° East  Level Estimated
Sat 09:51:00 52.2292 5.6985 106° East  Level Estimated
Sat 09:52:00 52.1922 5.9043 106° East  Level Estimated
Sat 09:53:00 52.1548 6.1097 106° East  Level Estimated
Sat 09:54:00 52.1170 6.3148 107° East  Level Estimated
Sat 09:55:00 52.0789 6.5196 107° East  Level Estimated
Sat 09:56:00 52.0405 6.7240 107° East  Level Estimated
Sat 09:57:00 52.0017 6.9281 107° East  Level Estimated
Sat 09:58:00 51.9625 7.1317 107° East  Level Estimated
Sat 09:59:00 51.9230 7.3351 107° East  Level Estimated
Sat 10:00:00 51.8831 7.5381 108° East  Level Estimated
Sat 10:01:00 51.8429 7.7407 108° East  Level Estimated
Sat 10:02:00 51.8024 7.9429 108° East  Level Estimated
Sat 10:03:00 51.7615 8.1448 108° East  Level Estimated
Sat 10:04:00 51.7202 8.3463 108° East  Level Estimated
Sat 10:05:00 51.6786 8.5475 108° East  Level Estimated
Sat 10:06:00 51.6367 8.7483 109° East  Level Estimated
Sat 10:07:00 51.5944 8.9487 109° East  Level Estimated
Sat 10:08:00 51.5518 9.1487 109° East  Level Estimated
Sat 10:09:00 51.5088 9.3484 109° East  Level Estimated
Sat 10:10:00 51.4655 9.5477 109° East  Level Estimated
Sat 10:11:00 51.4219 9.7466 109° East  Level Estimated
Sat 10:12:00 51.3779 9.9451 109° East  Level Estimated
Sat 10:13:00 51.3336 10.1432 110° East  Level Estimated
Sat 10:14:00 51.2890 10.3410 110° East  Level Estimated
Sat 10:15:00 51.2440 10.5383 110° East  Level Estimated
Sat 10:16:00 51.1987 10.7353 110° East  Level Estimated
Sat 10:17:00 51.1531 10.9319 110° East  Level Estimated
Sat 10:18:00 51.1071 11.1281 110° East  Level Estimated
Sat 10:19:00 51.0608 11.3239 111° Southeast  Level Estimated
Sat 10:20:00 51.0142 11.5193 111° Southeast  Level Estimated
Sat 10:21:00 50.9673 11.7144 111° Southeast  Level Estimated
Sat 10:22:00 50.9200 11.9090 111° Southeast  Level Estimated
Sat 10:23:00 50.8724 12.1032 111° Southeast  Level Estimated
Sat 10:24:00 50.8245 12.2971 111° Southeast  Level Estimated
Sat 10:25:00 50.7763 12.4905 111° Southeast  Level Estimated
Sat 10:26:00 50.7277 12.6836 112° Southeast  Level Estimated
Sat 10:27:00 50.6789 12.8762 112° Southeast  Level Estimated
Sat 10:28:00 50.6297 13.0684 112° Southeast  Level Estimated
Sat 10:29:00 50.5802 13.2603 112° Southeast  Level Estimated
Sat 10:30:00 50.5304 13.4517 112° Southeast  Level Estimated
Sat 10:31:00 50.4803 13.6427 112° Southeast  Level Estimated
Sat 10:32:00 50.4298 13.8333 112° Southeast  Level Estimated
Sat 10:33:00 50.3791 14.0236 113° Southeast  Level Estimated
Sat 10:34:00 50.3280 14.2134 113° Southeast  Level Estimated
Sat 10:35:00 50.2766 14.4027 113° Southeast  Level Estimated
Sat 10:36:00 50.2250 14.5917 113° Southeast  Level Estimated
Sat 10:38:00 53.3177 -1.8968 100° East  Level Estimated
Sat 10:39:00 53.2942 -1.6804 100° East  Level Estimated
Sat 10:40:00 53.2702 -1.4642 100° East  Level Estimated
Sat 10:40:13 53.3580 -2.2770 100° East  Level FlightAware ADS-B
Sat 10:45:00 53.2981 -1.7154 100° East  Level Estimated
Sat 10:46:00 53.2742 -1.4992 100° East  Level Estimated
Sat 10:47:00 53.2500 -1.2833 101° East  Level Estimated
Sat 10:48:00 53.2253 -1.0676 101° East  Level Estimated
Sat 10:49:00 53.2003 -0.8522 101° East  Level Estimated
Sat 10:50:00 53.1748 -0.6370 101° East  Level Estimated
Sat 10:51:00 53.1490 -0.4220 101° East  Level Estimated
Sat 10:52:00 53.1228 -0.2074 101° East  Level Estimated
Sat 10:53:00 53.0962 0.0070 102° East  Level Estimated
Sat 10:54:00 53.0692 0.2212 102° East  Level Estimated
Sat 10:55:00 53.0418 0.4350 102° East  Level Estimated
Sat 10:56:00 53.0141 0.6486 102° East  Level Estimated
Sat 10:57:00 52.9860 0.8620 102° East  Level Estimated
Sat 10:58:00 52.9574 1.0750 102° East  Level Estimated
Sat 10:59:00 52.9286 1.2878 103° East  Level Estimated
Sat 11:00:00 52.8993 1.5002 103° East  Level Estimated
Sat 11:01:00 52.8696 1.7124 103° East  Level Estimated
Sat 11:02:00 52.8396 1.9243 103° East  Level Estimated
Sat 11:03:00 52.8092 2.1359 103° East  Level Estimated
Sat 11:04:00 52.7784 2.3472 103° East  Level Estimated
Sat 11:05:00 52.7472 2.5582 104° East  Level Estimated
Sat 11:06:00 52.7157 2.7689 104° East  Level Estimated
Sat 11:07:00 52.6838 2.9793 104° East  Level Estimated
Sat 11:08:00 52.6516 3.1894 104° East  Level Estimated
Sat 11:09:00 52.6189 3.3991 104° East  Level Estimated
Sat 11:10:00 52.5859 3.6086 104° East  Level Estimated
Sat 11:11:00 52.5525 3.8177 105° East  Level Estimated
Sat 11:12:00 52.5187 4.0266 105° East  Level Estimated
Sat 11:13:00 52.4846 4.2351 105° East  Level Estimated
Sat 11:14:00 52.4614 4.3757 105° East  Level Estimated
Sat 11:15:00 52.4380 4.5162 105° East  Level Estimated
Sat 11:16:00 52.4144 4.6565 105° East  Level Estimated
Sat 11:17:00 52.3906 4.7967 105° East  Level Estimated
Sat 11:18:00 52.3667 4.9367 106° East  Level Estimated
Sat 11:19:00 52.3426 5.0766 106° East  Level Estimated
Sat 11:20:00 52.3184 5.2164 106° East  Level Estimated
Sat 11:21:00 52.2940 5.3559 106° East  Level Estimated
Sat 11:22:00 52.2694 5.4953 106° East  Level Estimated
Sat 11:23:00 52.2447 5.6346 106° East  Level Estimated
Sat 11:24:00 52.2198 5.7737 106° East  Level Estimated
Sat 11:25:00 52.1947 5.9127 106° East  Level Estimated
Sat 11:26:00 52.1695 6.0515 106° East  Level Estimated
Sat 11:27:00 52.1441 6.1901 107° East  Level Estimated
Sat 11:28:00 52.1185 6.3286 107° East  Level Estimated
Sat 11:29:00 52.0928 6.4669 107° East  Level Estimated
Sat 11:30:00 52.0669 6.6051 107° East  Level Estimated
Sat 11:31:00 52.0409 6.7431 107° East  Level Estimated
Sat 11:32:00 52.0147 6.8809 107° East  Level Estimated
Sat 11:33:00 51.9883 7.0186 107° East  Level Estimated
Sat 11:34:00 51.9618 7.1561 107° East  Level Estimated
Sat 11:35:00 51.9351 7.2935 107° East  Level Estimated
Sat 11:36:00 51.9083 7.4307 108° East  Level Estimated
Sat 11:37:00 51.8813 7.5677 108° East  Level Estimated
Sat 11:38:00 51.8541 7.7045 108° East  Level Estimated
Sat 11:39:00 51.8268 7.8412 108° East  Level Estimated
Sat 11:40:00 51.7993 7.9778 108° East  Level Estimated
Sat 11:41:00 51.7717 8.1141 108° East  Level Estimated
Sat 11:42:00 51.7439 8.2503 108° East  Level Estimated
Sat 11:43:00 51.7160 8.3863 108° East  Level Estimated
Sat 11:44:00 51.6878 8.5222 108° East  Level Estimated
Sat 11:45:00 51.6596 8.6579 109° East  Level Estimated
Sat 11:46:00 51.6312 8.7934 109° East  Level Estimated
Sat 11:47:00 51.6026 8.9288 109° East  Level Estimated
Sat 11:48:00 51.5739 9.0639 109° East  Level Estimated
Sat 11:49:00 51.5450 9.1989 109° East  Level Estimated
Sat 11:50:00 51.5159 9.3338 109° East  Level Estimated
Sat 11:51:00 51.4868 9.4684 109° East  Level Estimated
Sat 11:52:00 51.4574 9.6029 109° East  Level Estimated
Sat 11:53:00 51.4279 9.7373 109° East  Level Estimated
Sat 11:54:00 51.3983 9.8714 109° East  Level Estimated
Sat 11:55:00 51.3684 10.0054 110° East  Level Estimated
Sat 11:56:00 51.3385 10.1391 110° East  Level Estimated
Sat 11:57:00 51.3084 10.2728 110° East  Level Estimated
Sat 11:58:00 51.2781 10.4062 110° East  Level Estimated
Sat 11:59:00 51.2477 10.5395 110° East  Level Estimated
Sat 12:00:00 51.2171 10.6726 110° East  Level Estimated
Sat 12:01:00 51.1864 10.8055 110° East  Level Estimated
Sat 12:02:00 51.1555 10.9382 110° East  Level Estimated
Sat 12:03:00 51.1245 11.0708 110° East  Level Estimated
Sat 12:04:00 51.0933 11.2031 111° Southeast  Level Estimated
Sat 12:05:00 51.0620 11.3354 111° Southeast  Level Estimated
Sat 12:06:00 51.0305 11.4674 111° Southeast  Level Estimated
Sat 12:07:00 50.9989 11.5992 111° Southeast  Level Estimated
Sat 12:08:00 50.9672 11.7309 111° Southeast  Level Estimated
Sat 12:09:00 50.9353 11.8624 111° Southeast  Level Estimated
Sat 12:10:00 50.9032 11.9937 111° Southeast  Level Estimated
Sat 12:11:00 50.8710 12.1248 111° Southeast  Level Estimated
Sat 12:12:00 50.8387 12.2557 111° Southeast  Level Estimated
Sat 12:13:00 50.8062 12.3865 111° Southeast  Level Estimated
Sat 12:14:00 50.7766 12.5047 112° Southeast  Level Estimated
Sat 12:15:00 50.7470 12.6227 112° Southeast  Level Estimated
Sat 12:16:00 50.7172 12.7406 112° Southeast  Level Estimated
Sat 12:17:00 50.6873 12.8584 112° Southeast  Level Estimated
Sat 12:18:00 50.6573 12.9760 112° Southeast  Level Estimated
Sat 12:19:00 50.6271 13.0935 112° Southeast  Level Estimated
Sat 12:20:00 50.5969 13.2108 112° Southeast  Level Estimated
Sat 12:21:00 50.5665 13.3279 112° Southeast  Level Estimated
Sat 12:22:00 50.5360 13.4449 112° Southeast  Level Estimated
Sat 12:23:00 50.5054 13.5618 112° Southeast  Level Estimated
Sat 12:24:00 50.4747 13.6785 112° Southeast  Level Estimated
Sat 12:25:00 50.4438 13.7950 113° Southeast  Level Estimated
Sat 12:26:00 50.4129 13.9114 113° Southeast  Level Estimated
Sat 12:27:00 50.3818 14.0276 113° Southeast  Level Estimated
Sat 12:28:00 50.3506 14.1437 113° Southeast  Level Estimated
Sat 12:29:00 50.3193 14.2597 113° Southeast  Level Estimated
Sat 12:30:00 50.2879 14.3755 113° Southeast  Level Estimated
Sat 12:31:00 50.2564 14.4911 113° Southeast  Level Estimated
Sat 12:32:00 50.2247 14.6066 113° Southeast  Level Estimated
Sat 12:33:00 50.1930 14.7219 113° Southeast  Level Estimated
Sat 12:34:00 50.1611 14.8371 113° Southeast  Level Estimated
Sat 12:35:00 50.1291 14.9521 113° Southeast  Level Estimated
Sat 12:36:00 50.0970 15.0669 114° Southeast  Level Estimated
Sat 12:37:00 50.0648 15.1816 114° Southeast  Level Estimated
Sat 12:38:00 50.0324 15.2962 114° Southeast  Level Estimated
Sat 12:39:00 50.0000 15.4106 114° Southeast  Level Estimated
Sat 12:40:00 49.9674 15.5248 114° Southeast  Level Estimated
Sat 12:41:00 49.9348 15.6389 114° Southeast  Level Estimated
Sat 12:42:00 49.9020 15.7529 114° Southeast  Level Estimated
Sat 12:43:00 49.8691 15.8666 114° Southeast  Level Estimated
Sat 12:44:00 49.8361 15.9803 114° Southeast  Level Estimated
Sat 12:45:00 49.8030 16.0938 114° Southeast  Level Estimated
Sat 12:46:00 49.7698 16.2071 114° Southeast  Level Estimated
Sat 12:47:00 49.7365 16.3202 114° Southeast  Level Estimated
Sat 12:48:00 49.7030 16.4332 115° Southeast  Level Estimated
Sat 12:49:00 49.6695 16.5461 115° Southeast  Level Estimated
Sat 12:50:00 49.6358 16.6588 115° Southeast  Level Estimated
Sat 12:51:00 49.6020 16.7713 115° Southeast  Level Estimated
Sat 12:52:00 49.5681 16.8837 115° Southeast  Level Estimated
Sat 12:53:00 49.5342 16.9959 115° Southeast  Level Estimated
Sat 12:54:00 49.5001 17.1080 115° Southeast  Level Estimated
Sat 12:55:00 49.4659 17.2199 115° Southeast  Level Estimated
Sat 12:56:00 49.4315 17.3316 115° Southeast  Level Estimated
Sat 12:57:00 49.3971 17.4433 115° Southeast  Level Estimated
Sat 12:58:00 49.3626 17.5547 115° Southeast  Level Estimated
Sat 12:59:00 49.3279 17.6660 115° Southeast  Level Estimated
Sat 13:00:00 49.2932 17.7771 116° Southeast  Level Estimated
Sat 13:01:00 49.2584 17.8881 116° Southeast  Level Estimated
Sat 13:02:00 49.2234 17.9989 116° Southeast  Level Estimated
Sat 13:03:00 49.1884 18.1096 116° Southeast  Level Estimated
Sat 13:04:00 49.1532 18.2201 116° Southeast  Level Estimated
Sat 13:05:00 49.1179 18.3304 116° Southeast  Level Estimated
Sat 13:06:00 49.0825 18.4406 116° Southeast  Level Estimated
Sat 13:07:00 49.0471 18.5506 116° Southeast  Level Estimated
Sat 13:08:00 49.0115 18.6605 116° Southeast  Level Estimated
Sat 13:09:00 48.9758 18.7702 116° Southeast  Level Estimated
Sat 13:10:00 48.9400 18.8798 116° Southeast  Level Estimated
Sat 13:11:00 48.9041 18.9892 116° Southeast  Level Estimated
Sat 13:12:00 48.8681 19.0984 117° Southeast  Level Estimated
Sat 13:13:00 48.8320 19.2075 117° Southeast  Level Estimated
Sat 13:14:00 48.7974 19.3115 117° Southeast  Level Estimated
Sat 13:15:00 48.7627 19.4154 117° Southeast  Level Estimated
Sat 13:16:00 48.7280 19.5191 117° Southeast  Level Estimated
Sat 13:17:00 48.6931 19.6227 117° Southeast  Level Estimated
Sat 13:18:00 48.6582 19.7261 117° Southeast  Level Estimated
Sat 13:19:00 48.6232 19.8294 117° Southeast  Level Estimated
Sat 13:20:00 48.5881 19.9325 117° Southeast  Level Estimated
Sat 13:21:00 48.5528 20.0355 117° Southeast  Level Estimated
Sat 13:22:00 48.5175 20.1384 117° Southeast  Level Estimated
Sat 13:23:00 48.4821 20.2411 117° Southeast  Level Estimated
Sat 13:24:00 48.4467 20.3437 118° Southeast  Level Estimated
Sat 13:25:00 48.4111 20.4461 118° Southeast  Level Estimated
Sat 13:26:00 48.3754 20.5484 118° Southeast  Level Estimated
Sat 13:27:00 48.3396 20.6505 118° Southeast  Level Estimated
Sat 13:28:00 48.3038 20.7525 118° Southeast  Level Estimated
Sat 13:29:00 48.2678 20.8543 118° Southeast  Level Estimated
Sat 13:30:00 48.2318 20.9561 118° Southeast  Level Estimated
Sat 13:31:00 48.1957 21.0576 118° Southeast  Level Estimated
Sat 13:32:00 48.1595 21.1590 118° Southeast  Level Estimated
Sat 13:33:00 48.1232 21.2603 118° Southeast  Level Estimated
Sat 13:34:00 48.0868 21.3615 118° Southeast  Level Estimated
Sat 13:35:00 48.0503 21.4625 118° Southeast  Level Estimated
Sat 13:36:00 48.0137 21.5633 118° Southeast  Level Estimated
Sat 13:37:00 47.9771 21.6640 119° Southeast  Level Estimated
Sat 13:38:00 47.9404 21.7646 119° Southeast  Level Estimated
Sat 13:39:00 47.9035 21.8650 119° Southeast  Level Estimated
Sat 13:40:00 47.8666 21.9653 119° Southeast  Level Estimated
Sat 13:41:00 47.8296 22.0654 119° Southeast  Level Estimated
Sat 13:42:00 47.7925 22.1654 119° Southeast  Level Estimated
Sat 13:43:00 47.7553 22.2653 119° Southeast  Level Estimated
Sat 13:44:00 47.7189 22.3628 119° Southeast  Level Estimated
Sat 13:45:00 47.6824 22.4601 119° Southeast  Level Estimated
Sat 13:46:00 47.6458 22.5574 119° Southeast  Level Estimated
Sat 13:47:00 47.6091 22.6544 119° Southeast  Level Estimated
Sat 13:48:00 47.5723 22.7514 119° Southeast  Level Estimated
Sat 13:49:00 47.5355 22.8482 119° Southeast  Level Estimated
Sat 13:50:00 47.4985 22.9449 119° Southeast  Level Estimated
Sat 13:51:00 47.4615 23.0415 120° Southeast  Level Estimated
Sat 13:52:00 47.4244 23.1379 120° Southeast  Level Estimated
Sat 13:53:00 47.3873 23.2341 120° Southeast  Level Estimated
Sat 13:54:00 47.3500 23.3303 120° Southeast  Level Estimated
Sat 13:55:00 47.3127 23.4263 120° Southeast  Level Estimated
Sat 13:56:00 47.2753 23.5222 120° Southeast  Level Estimated
Sat 13:57:00 47.2378 23.6179 120° Southeast  Level Estimated
Sat 13:58:00 47.2002 23.7135 120° Southeast  Level Estimated
Sat 13:59:00 47.1626 23.8090 120° Southeast  Level Estimated
Sat 14:00:00 47.1248 23.9043 120° Southeast  Level Estimated
Sat 14:01:00 47.0870 23.9995 120° Southeast  Level Estimated
Sat 14:02:00 47.0491 24.0945 120° Southeast  Level Estimated
Sat 14:03:00 47.0112 24.1895 120° Southeast  Level Estimated
Sat 14:04:00 46.9731 24.2843 120° Southeast  Level Estimated
Sat 14:05:00 46.9350 24.3789 121° Southeast  Level Estimated
Sat 14:06:00 46.8968 24.4734 121° Southeast  Level Estimated
Sat 14:07:00 46.8585 24.5678 121° Southeast  Level Estimated
Sat 14:08:00 46.8202 24.6621 121° Southeast  Level Estimated
Sat 14:09:00 46.7817 24.7562 121° Southeast  Level Estimated
Sat 14:10:00 46.7432 24.8501 121° Southeast  Level Estimated
Sat 14:11:00 46.7046 24.9440 121° Southeast  Level Estimated
Sat 14:12:00 46.6660 25.0377 121° Southeast  Level Estimated
Sat 14:13:00 46.6272 25.1313 121° Southeast  Level Estimated
Sat 14:14:00 46.5884 25.2247 121° Southeast  Level Estimated
Sat 14:15:00 46.5495 25.3180 121° Southeast  Level Estimated
Sat 14:16:00 46.5105 25.4112 121° Southeast  Level Estimated
Sat 14:17:00 46.4715 25.5042 121° Southeast  Level Estimated
Sat 14:18:00 46.4324 25.5971 121° Southeast  Level Estimated
Sat 14:19:00 46.3932 25.6899 121° Southeast  Level Estimated
Sat 14:20:00 46.3539 25.7826 122° Southeast  Level Estimated
Sat 14:21:00 46.3145 25.8751 122° Southeast  Level Estimated
Sat 14:22:00 46.2751 25.9674 122° Southeast  Level Estimated
Sat 14:23:00 46.2356 26.0597 122° Southeast  Level Estimated
Sat 14:24:00 46.1961 26.1518 122° Southeast  Level Estimated
Sat 14:25:00 46.1564 26.2438 122° Southeast  Level Estimated
Sat 14:26:00 46.1167 26.3356 122° Southeast  Level Estimated
Sat 14:27:00 46.0769 26.4273 122° Southeast  Level Estimated
Sat 14:28:00 46.0371 26.5189 122° Southeast  Level Estimated
Sat 14:29:00 45.9971 26.6103 122° Southeast  Level Estimated
Sat 14:30:00 45.9571 26.7017 122° Southeast  Level Estimated
Sat 14:31:00 45.9170 26.7928 122° Southeast  Level Estimated
Sat 14:32:00 45.8769 26.8839 122° Southeast  Level Estimated
Sat 14:33:00 45.8367 26.9748 122° Southeast  Level Estimated
Sat 14:34:00 45.7963 27.0656 122° Southeast  Level Estimated
Sat 14:35:00 45.7560 27.1562 123° Southeast  Level Estimated
Sat 14:36:00 45.7155 27.2468 123° Southeast  Level Estimated
Sat 14:37:00 45.6750 27.3372 123° Southeast  Level Estimated
Sat 14:38:00 45.6344 27.4274 123° Southeast  Level Estimated
Sat 14:39:00 45.5938 27.5176 123° Southeast  Level Estimated
Sat 14:40:00 45.5531 27.6076 123° Southeast  Level Estimated
Sat 14:41:00 45.5123 27.6974 123° Southeast  Level Estimated
Sat 14:42:00 45.4714 27.7872 123° Southeast  Level Estimated
Sat 14:43:00 45.4305 27.8768 123° Southeast  Level Estimated
Sat 14:44:00 45.3928 27.9590 123° Southeast  Level Estimated
Sat 14:45:00 45.3551 28.0411 123° Southeast  Level Estimated
Sat 14:46:00 45.3173 28.1231 123° Southeast  Level Estimated
Sat 14:47:00 45.2794 28.2050 123° Southeast  Level Estimated
Sat 14:48:00 45.2415 28.2867 123° Southeast  Level Estimated
Sat 14:49:00 45.2036 28.3684 123° Southeast  Level Estimated
Sat 14:50:00 45.1655 28.4499 123° Southeast  Level Estimated
Sat 14:51:00 45.1275 28.5314 124° Southeast  Level Estimated
Sat 14:52:00 45.0893 28.6127 124° Southeast  Level Estimated
Sat 14:53:00 45.0511 28.6940 124° Southeast  Level Estimated
Sat 14:54:00 45.0129 28.7751 124° Southeast  Level Estimated
Sat 14:55:00 44.9746 28.8561 124° Southeast  Level Estimated
Sat 14:56:00 44.9362 28.9370 124° Southeast  Level Estimated
Sat 14:57:00 44.8978 29.0178 124° Southeast  Level Estimated
Sat 14:58:00 44.8593 29.0985 124° Southeast  Level Estimated
Sat 14:59:00 44.8208 29.1791 124° Southeast  Level Estimated
Sat 15:00:00 44.7822 29.2595 124° Southeast  Level Estimated
Sat 15:01:00 44.7435 29.3399 124° Southeast  Level Estimated
Sat 15:02:00 44.7048 29.4202 124° Southeast  Level Estimated
Sat 15:03:00 44.6660 29.5003 124° Southeast  Level Estimated
Sat 15:04:00 44.6272 29.5804 124° Southeast  Level Estimated
Sat 15:05:00 44.5884 29.6603 124° Southeast  Level Estimated
Sat 15:06:00 44.5494 29.7401 124° Southeast  Level Estimated
Sat 15:07:00 44.5104 29.8198 124° Southeast  Level Estimated
Sat 15:08:00 44.4714 29.8995 124° Southeast  Level Estimated
Sat 15:09:00 44.4323 29.9790 125° Southeast  Level Estimated
Sat 15:10:00 44.3932 30.0584 125° Southeast  Level Estimated
Sat 15:11:00 44.3539 30.1377 125° Southeast  Level Estimated
Sat 15:12:00 44.3147 30.2169 125° Southeast  Level Estimated
Sat 15:13:00 44.2754 30.2959 125° Southeast  Level Estimated
Sat 15:14:00 44.2360 30.3749 125° Southeast  Level Estimated
Sat 15:15:00 44.1966 30.4538 125° Southeast  Level Estimated
Sat 15:16:00 44.1571 30.5326 125° Southeast  Level Estimated
Sat 15:17:00 44.1176 30.6112 125° Southeast  Level Estimated
Sat 15:18:00 44.0780 30.6898 125° Southeast  Level Estimated
Sat 15:19:00 44.0383 30.7682 125° Southeast  Level Estimated
Sat 15:20:00 43.9986 30.8466 125° Southeast  Level Estimated
Sat 15:21:00 43.9589 30.9248 125° Southeast  Level Estimated
Sat 15:22:00 43.9191 31.0030 125° Southeast  Level Estimated
Sat 15:23:00 43.8792 31.0810 125° Southeast  Level Estimated
Sat 15:24:00 43.8393 31.1589 125° Southeast  Level Estimated
Sat 15:25:00 43.7994 31.2367 125° Southeast  Level Estimated
Sat 15:26:00 43.7594 31.3145 125° Southeast  Level Estimated
Sat 15:27:00 43.7193 31.3921 126° Southeast  Level Estimated
Sat 15:28:00 43.6792 31.4696 126° Southeast  Level Estimated
Sat 15:29:00 43.6390 31.5470 126° Southeast  Level Estimated
Sat 15:30:00 43.5988 31.6243 126° Southeast  Level Estimated
Sat 15:31:00 43.5585 31.7015 126° Southeast  Level Estimated
Sat 15:32:00 43.5182 31.7786 126° Southeast  Level Estimated
Sat 15:33:00 43.4778 31.8556 126° Southeast  Level Estimated
Sat 15:34:00 43.4374 31.9325 126° Southeast  Level Estimated
Sat 15:35:00 43.3969 32.0093 126° Southeast  Level Estimated
Sat 15:36:00 43.3564 32.0860 126° Southeast  Level Estimated
Sat 15:37:00 43.3158 32.1626 126° Southeast  Level Estimated
Sat 15:38:00 43.2752 32.2390 126° Southeast  Level Estimated
Sat 15:39:00 43.2345 32.3154 126° Southeast  Level Estimated
Sat 15:40:00 43.1937 32.3917 126° Southeast  Level Estimated
Sat 15:41:00 43.1530 32.4679 126° Southeast  Level Estimated
Sat 15:42:00 43.1121 32.5439 126° Southeast  Level Estimated
Sat 15:43:00 43.0712 32.6199 126° Southeast  Level Estimated
Sat 15:44:00 43.0366 32.6841 126° Southeast  Level Estimated
Sat 15:45:00 43.0020 32.7481 126° Southeast  Level Estimated
Sat 15:46:00 42.9673 32.8121 127° Southeast  Level Estimated
Sat 15:47:00 42.9326 32.8761 127° Southeast  Level Estimated
Sat 15:48:00 42.8979 32.9399 127° Southeast  Level Estimated
Sat 15:49:00 42.8631 33.0037 127° Southeast  Level Estimated
Sat 15:50:00 42.8283 33.0674 127° Southeast  Level Estimated
Sat 15:51:00 42.7934 33.1311 127° Southeast  Level Estimated
Sat 15:52:00 42.7585 33.1946 127° Southeast  Level Estimated
Sat 15:53:00 42.7236 33.2581 127° Southeast  Level Estimated
Sat 15:54:00 42.6886 33.3215 127° Southeast  Level Estimated
Sat 15:55:00 42.6536 33.3849 127° Southeast  Level Estimated
Sat 15:56:00 42.6186 33.4482 127° Southeast  Level Estimated
Sat 15:57:00 42.5835 33.5114 127° Southeast  Level Estimated
Sat 15:58:00 42.5485 33.5745 127° Southeast  Level Estimated
Sat 15:59:00 42.5133 33.6376 127° Southeast  Level Estimated
Sat 16:00:00 42.4781 33.7006 127° Southeast  Level Estimated
Sat 16:01:00 42.4430 33.7635 127° Southeast  Level Estimated
Sat 16:02:00 42.4077 33.8264 127° Southeast  Level Estimated
Sat 16:03:00 42.3725 33.8892 127° Southeast  Level Estimated
Sat 16:04:00 42.3372 33.9519 127° Southeast  Level Estimated
Sat 16:05:00 42.3018 34.0146 127° Southeast  Level Estimated
Sat 16:06:00 42.2664 34.0771 127° Southeast  Level Estimated
Sat 16:07:00 42.2310 34.1396 127° Southeast  Level Estimated
Sat 16:08:00 42.1956 34.2021 127° Southeast  Level Estimated
Sat 16:09:00 42.1601 34.2645 127° Southeast  Level Estimated
Sat 16:10:00 42.1246 34.3268 128° Southeast  Level Estimated
Sat 16:11:00 42.0891 34.3890 128° Southeast  Level Estimated
Sat 16:12:00 42.0535 34.4511 128° Southeast  Level Estimated
Sat 16:13:00 42.0179 34.5132 128° Southeast  Level Estimated
Sat 16:14:00 41.9823 34.5753 128° Southeast  Level Estimated
Sat 16:15:00 41.9466 34.6372 128° Southeast  Level Estimated
Sat 16:16:00 41.9109 34.6991 128° Southeast  Level Estimated
Sat 16:17:00 41.8751 34.7609 128° Southeast  Level Estimated
Sat 16:18:00 41.8394 34.8226 128° Southeast  Level Estimated
Sat 16:19:00 41.8036 34.8843 128° Southeast  Level Estimated
Sat 16:20:00 41.7677 34.9459 128° Southeast  Level Estimated
Sat 16:21:00 41.7318 35.0074 128° Southeast  Level Estimated
Sat 16:22:00 41.6959 35.0689 128° Southeast  Level Estimated
Sat 16:23:00 41.6600 35.1303 128° Southeast  Level Estimated
Sat 16:24:00 41.6240 35.1916 128° Southeast  Level Estimated
Sat 16:25:00 41.5880 35.2529 128° Southeast  Level Estimated
Sat 16:26:00 41.5520 35.3141 128° Southeast  Level Estimated
Sat 16:27:00 41.5159 35.3752 128° Southeast  Level Estimated
Sat 16:28:00 41.4798 35.4362 128° Southeast  Level Estimated
Sat 16:29:00 41.4437 35.4972 128° Southeast  Level Estimated
Sat 16:30:00 41.4075 35.5582 128° Southeast  Level Estimated
Sat 16:31:00 41.3713 35.6190 128° Southeast  Level Estimated
Sat 16:32:00 41.3351 35.6798 128° Southeast  Level Estimated
Sat 16:33:00 41.2988 35.7405 128° Southeast  Level Estimated
Sat 16:34:00 41.2625 35.8012 129° Southeast  Level Estimated
Sat 16:35:00 41.2262 35.8617 129° Southeast  Level Estimated
Sat 16:36:00 41.1898 35.9222 129° Southeast  Level Estimated
Sat 16:37:00 41.1535 35.9827 129° Southeast  Level Estimated
Sat 16:38:00 41.1170 36.0431 129° Southeast  Level Estimated
Sat 16:39:00 41.0806 36.1034 129° Southeast  Level Estimated
Sat 16:40:00 41.0441 36.1636 129° Southeast  Level Estimated
Sat 16:41:00 41.0076 36.2238 129° Southeast  Level Estimated
Sat 16:42:00 40.9710 36.2839 129° Southeast  Level Estimated
Sat 16:43:00 40.9345 36.3440 129° Southeast  Level Estimated
Sat 16:44:00 40.8979 36.4039 129° Southeast  Level Estimated
Sat 16:45:00 40.8612 36.4638 129° Southeast  Level Estimated
Sat 16:46:00 40.8245 36.5237 129° Southeast  Level Estimated
Sat 16:47:00 40.7878 36.5835 129° Southeast  Level Estimated
Sat 16:48:00 40.7511 36.6432 129° Southeast  Level Estimated
Sat 16:49:00 40.7144 36.7028 129° Southeast  Level Estimated
Sat 16:50:00 40.6776 36.7624 129° Southeast  Level Estimated
Sat 16:51:00 40.6407 36.8219 129° Southeast  Level Estimated
Sat 16:52:00 40.6039 36.8814 129° Southeast  Level Estimated
Sat 16:53:00 40.5670 36.9408 129° Southeast  Level Estimated
Sat 16:54:00 40.5301 37.0001 129° Southeast  Level Estimated
Sat 16:55:00 40.4931 37.0593 129° Southeast  Level Estimated
Sat 16:56:00 40.4562 37.1185 129° Southeast  Level Estimated
Sat 16:57:00 40.4192 37.1777 129° Southeast  Level Estimated
Sat 16:58:00 40.3821 37.2367 129° Southeast  Level Estimated
Sat 16:59:00 40.3451 37.2957 129° Southeast  Level Estimated
Sat 17:00:00 40.3079 37.3546 130° Southeast  Level Estimated
Sat 17:01:00 40.2708 37.4135 130° Southeast  Level Estimated
Sat 17:02:00 40.2337 37.4723 130° Southeast  Level Estimated
Sat 17:03:00 40.1965 37.5310 130° Southeast  Level Estimated
Sat 17:04:00 40.1593 37.5897 130° Southeast  Level Estimated
Sat 17:05:00 40.1220 37.6483 130° Southeast  Level Estimated
Sat 17:06:00 40.0848 37.7068 130° Southeast  Level Estimated
Sat 17:07:00 40.0475 37.7653 130° Southeast  Level Estimated
Sat 17:08:00 40.0101 37.8237 130° Southeast  Level Estimated
Sat 17:09:00 39.9728 37.8821 130° Southeast  Level Estimated
Sat 17:10:00 39.9360 37.9394 130° Southeast  Level Estimated
Sat 17:11:00 39.8992 37.9966 130° Southeast  Level Estimated
Sat 17:12:00 39.8624 38.0538 130° Southeast  Level Estimated
Sat 17:13:00 39.8256 38.1109 130° Southeast  Level Estimated
Sat 17:14:00 39.7887 38.1680 130° Southeast  Level Estimated
Sat 17:15:00 39.7518 38.2250 130° Southeast  Level Estimated
Sat 17:16:00 39.7149 38.2819 130° Southeast  Level Estimated
Sat 17:17:00 39.6779 38.3388 130° Southeast  Level Estimated
Sat 17:18:00 39.6409 38.3956 130° Southeast  Level Estimated
Sat 17:19:00 39.6039 38.4524 130° Southeast  Level Estimated
Sat 17:20:00 39.5669 38.5090 130° Southeast  Level Estimated
Sat 17:21:00 39.5302 38.5650 130° Southeast  Level Estimated
Sat 17:22:00 39.4935 38.6210 130° Southeast  Level Estimated
Sat 17:23:00 39.4568 38.6769 130° Southeast  Level Estimated
Sat 17:24:00 39.4201 38.7327 130° Southeast  Level Estimated
Sat 17:25:00 39.3834 38.7884 130° Southeast  Level Estimated
Sat 17:26:00 39.3466 38.8442 130° Southeast  Level Estimated
Sat 17:27:00 39.3097 38.8998 131° Southeast  Level Estimated
Sat 17:28:00 39.2729 38.9554 131° Southeast  Level Estimated
Sat 17:29:00 39.2360 39.0109 131° Southeast  Level Estimated
Sat 17:30:00 39.1992 39.0664 131° Southeast  Level Estimated
Sat 17:31:00 39.1622 39.1218 131° Southeast  Level Estimated
Sat 17:32:00 39.1253 39.1772 131° Southeast  Level Estimated
Sat 17:33:00 39.0883 39.2325 131° Southeast  Level Estimated
Sat 17:34:00 39.0513 39.2877 131° Southeast  Level Estimated
Sat 17:35:00 39.0143 39.3429 131° Southeast  Level Estimated
Sat 17:36:00 38.9772 39.3980 131° Southeast  Level Estimated
Sat 17:42:00 53.3077 -1.8137 100° East  Level Estimated
Sat 17:43:00 53.2849 -1.6054 100° East  Level Estimated
Sat 17:52:00 53.3091 -1.7560 100° East  Level Estimated
Sat 17:53:00 53.2862 -1.5478 100° East  Level Estimated
Sat 17:54:00 53.2629 -1.3398 101° East  Level Estimated
Sat 17:55:00 53.2392 -1.1321 101° East  Level Estimated
Sat 17:56:00 53.2152 -0.9245 101° East  Level Estimated
Sat 17:57:00 53.1909 -0.7173 101° East  Level Estimated
Sat 17:58:00 53.1661 -0.5102 101° East  Level Estimated
Sat 17:59:00 53.1410 -0.3034 101° East  Level Estimated
Sat 18:00:00 53.1156 -0.0969 102° East  Level Estimated
Sat 18:01:00 53.0898 0.1094 102° East  Level Estimated
Sat 18:02:00 53.0636 0.3155 102° East  Level Estimated
Sat 18:03:00 53.0371 0.5213 102° East  Level Estimated
Sat 18:04:00 53.0103 0.7268 102° East  Level Estimated
Sat 18:05:00 52.9830 0.9322 102° East  Level Estimated
Sat 18:06:00 52.9555 1.1372 103° East  Level Estimated
Sat 18:07:00 52.9275 1.3420 103° East  Level Estimated
Sat 18:08:00 52.8993 1.5465 103° East  Level Estimated
Sat 18:09:00 52.8706 1.7507 103° East  Level Estimated
Sat 18:10:00 52.8416 1.9547 103° East  Level Estimated
Sat 18:11:00 52.8123 2.1584 103° East  Level Estimated
Sat 18:12:00 52.7826 2.3618 103° East  Level Estimated
Sat 18:13:00 52.7526 2.5649 104° East  Level Estimated
Sat 18:14:00 52.7223 2.7678 104° East  Level Estimated
Sat 18:15:00 52.6915 2.9704 104° East  Level Estimated
Sat 18:16:00 52.6605 3.1727 104° East  Level Estimated
Sat 18:17:00 52.6291 3.3747 104° East  Level Estimated
Sat 18:18:00 52.5973 3.5764 104° East  Level Estimated
Sat 18:19:00 52.5652 3.7778 105° East  Level Estimated
Sat 18:20:00 52.5328 3.9789 105° East  Level Estimated
Sat 18:21:00 52.5000 4.1797 105° East  Level Estimated
Sat 18:22:00 52.4669 4.3802 105° East  Level Estimated
Sat 18:23:00 52.4335 4.5804 105° East  Level Estimated
Sat 18:24:00 52.3997 4.7804 105° East  Level Estimated
Sat 18:35:00 53.3169 -1.8836 100° East  Level Estimated
Sat 18:36:00 53.2942 -1.6753 100° East  Level Estimated
Sat 18:37:00 53.2711 -1.4672 100° East  Level Estimated
Sat 18:38:00 53.2477 -1.2594 101° East  Level Estimated
Sat 18:39:00 53.2239 -1.0518 101° East  Level Estimated
Sat 18:40:00 53.1998 -0.8444 101° East  Level Estimated
Sat 18:41:00 53.1753 -0.6372 101° East  Level Estimated
Sat 18:42:00 53.1505 -0.4303 101° East  Level Estimated
Sat 18:43:00 53.1252 -0.2236 101° East  Level Estimated
Sat 18:44:00 53.0997 -0.0172 102° East  Level Estimated
Sat 18:45:00 53.0737 0.1890 102° East  Level Estimated
Sat 18:46:00 53.0475 0.3950 102° East  Level Estimated
Sat 18:47:00 53.0208 0.6006 102° East  Level Estimated
Sat 18:48:00 52.9938 0.8061 102° East  Level Estimated
Sat 18:49:00 52.9665 1.0112 102° East  Level Estimated
Sat 18:50:00 52.9388 1.2162 103° East  Level Estimated
Sat 18:51:00 52.9107 1.4208 103° East  Level Estimated
Sat 18:52:00 52.8823 1.6252 103° East  Level Estimated
Sat 18:53:00 52.8536 1.8293 103° East  Level Estimated
Sat 18:54:00 52.8245 2.0331 103° East  Level Estimated
Sat 18:55:00 52.7950 2.2367 103° East  Level Estimated
Sat 18:56:00 52.7652 2.4400 104° East  Level Estimated
Sat 18:57:00 52.7351 2.6430 104° East  Level Estimated
Sat 18:58:00 52.7046 2.8457 104° East  Level Estimated
Sat 18:59:00 52.6738 3.0482 104° East  Level Estimated
Sat 19:00:00 52.6426 3.2503 104° East  Level Estimated
Sat 19:01:00 52.6110 3.4522 104° East  Level Estimated
Sat 19:02:00 52.5792 3.6537 105° East  Level Estimated
Sat 19:03:00 52.5470 3.8550 105° East  Level Estimated
Sat 19:04:00 52.5144 4.0560 105° East  Level Estimated
Sat 19:05:00 52.4815 4.2567 105° East  Level Estimated
Sat 19:06:00 52.4483 4.4571 105° East  Level Estimated
Sat 19:07:00 52.4147 4.6571 105° East  Level Estimated
Sat 19:08:00 52.3808 4.8569 105° East  Level Estimated
Sat 19:09:00 52.3466 5.0564 106° East  Level Estimated
Sat 19:10:00 52.3120 5.2555 106° East  Level Estimated
Sat 19:11:00 52.2771 5.4544 106° East  Level Estimated
Sat 19:12:00 52.2419 5.6529 106° East  Level Estimated
Sat 19:13:00 52.2063 5.8511 106° East  Level Estimated
Sat 19:14:00 52.1704 6.0490 106° East  Level Estimated
Sat 19:15:00 52.1341 6.2466 107° East  Level Estimated
Sat 19:16:00 52.0975 6.4438 107° East  Level Estimated
Sat 19:17:00 52.0606 6.6407 107° East  Level Estimated
Sat 19:18:00 52.0234 6.8373 107° East  Level Estimated
Sat 19:19:00 51.9859 7.0336 107° East  Level Estimated
Sat 19:20:00 51.9480 7.2295 107° East  Level Estimated
Sat 19:21:00 51.9098 7.4251 107° East  Level Estimated
Sat 19:22:00 51.8713 7.6204 108° East  Level Estimated
Sat 19:23:00 51.8324 7.8154 108° East  Level Estimated
Sat 19:24:00 51.7933 8.0100 108° East  Level Estimated
Sat 19:25:00 51.7538 8.2042 108° East  Level Estimated
Sat 19:26:00 51.7140 8.3981 108° East  Level Estimated
Sat 19:27:00 51.6738 8.5917 108° East  Level Estimated
Sat 19:28:00 51.6334 8.7850 109° East  Level Estimated
Sat 19:29:00 51.5926 8.9778 109° East  Level Estimated
Sat 19:30:00 51.5515 9.1704 109° East  Level Estimated
Sat 19:31:00 51.5101 9.3626 109° East  Level Estimated
Sat 19:32:00 51.4684 9.5544 109° East  Level Estimated
Sat 19:33:00 51.4264 9.7459 109° East  Level Estimated
Sat 19:34:00 51.3841 9.9370 109° East  Level Estimated
Sat 19:35:00 51.3414 10.1278 110° East  Level Estimated
Sat 19:36:00 51.2985 10.3182 110° East  Level Estimated
Sat 19:37:00 51.2552 10.5083 110° East  Level Estimated
Sat 19:38:00 51.2117 10.6980 110° East  Level Estimated
Sat 19:39:00 51.1678 10.8874 110° East  Level Estimated
Sat 19:40:00 51.1236 11.0764 110° East  Level Estimated
Sat 19:41:00 51.0791 11.2650 111° Southeast  Level Estimated
Sat 19:42:00 51.0344 11.4532 111° Southeast  Level Estimated
Sat 19:43:00 50.9893 11.6411 111° Southeast  Level Estimated
Sat 19:44:00 50.9439 11.8287 111° Southeast  Level Estimated
Sat 19:45:00 50.8982 12.0158 111° Southeast  Level Estimated
Sat 19:46:00 50.8522 12.2026 111° Southeast  Level Estimated
Sat 19:47:00 50.8059 12.3891 111° Southeast  Level Estimated
Sat 19:48:00 50.7593 12.5751 112° Southeast  Level Estimated
Sat 19:49:00 50.7125 12.7608 112° Southeast  Level Estimated
Sat 19:50:00 50.6653 12.9461 112° Southeast  Level Estimated
Sat 19:51:00 50.6178 13.1311 112° Southeast  Level Estimated
Sat 19:52:00 50.5701 13.3156 112° Southeast  Level Estimated
Sat 19:53:00 50.5220 13.4998 112° Southeast  Level Estimated
Sat 19:54:00 50.4737 13.6836 112° Southeast  Level Estimated
Sat 19:55:00 50.4251 13.8671 113° Southeast  Level Estimated
Sat 19:56:00 50.3762 14.0501 113° Southeast  Level Estimated
Sat 19:57:00 50.3270 14.2328 113° Southeast  Level Estimated
Sat 19:58:00 50.2775 14.4151 113° Southeast  Level Estimated
Sat 19:59:00 50.2277 14.5970 113° Southeast  Level Estimated
Sat 20:00:00 50.1777 14.7786 113° Southeast  Level Estimated
Sat 20:01:00 50.1274 14.9597 113° Southeast  Level Estimated
Sat 20:02:00 50.0767 15.1405 114° Southeast  Level Estimated
Sat 20:03:00 50.0258 15.3209 114° Southeast  Level Estimated
Sat 20:04:00 49.9747 15.5009 114° Southeast  Level Estimated
Sat 20:05:00 49.9232 15.6806 114° Southeast  Level Estimated
Sat 20:06:00 49.8715 15.8598 114° Southeast  Level Estimated
Sat 20:07:00 49.8195 16.0387 114° Southeast  Level Estimated
Sat 20:08:00 49.7672 16.2172 114° Southeast  Level Estimated
Sat 20:09:00 49.7146 16.3953 114° Southeast  Level Estimated
Sat 20:10:00 49.6618 16.5730 115° Southeast  Level Estimated
Sat 20:11:00 49.6087 16.7503 115° Southeast  Level Estimated
Sat 20:12:00 49.5554 16.9272 115° Southeast  Level Estimated
Sat 20:13:00 49.5017 17.1038 115° Southeast  Level Estimated
Sat 20:14:00 49.4478 17.2799 115° Southeast  Level Estimated
Sat 20:15:00 49.3936 17.4557 115° Southeast  Level Estimated
Sat 20:16:00 49.3392 17.6311 115° Southeast  Level Estimated
Sat 20:17:00 49.2845 17.8061 116° Southeast  Level Estimated
Sat 20:18:00 49.2295 17.9807 116° Southeast  Level Estimated
Sat 20:19:00 49.1743 18.1549 116° Southeast  Level Estimated
Sat 20:20:00 49.1188 18.3287 116° Southeast  Level Estimated
Sat 20:21:00 49.0631 18.5022 116° Southeast  Level Estimated
Sat 20:22:00 49.0070 18.6752 116° Southeast  Level Estimated
Sat 20:23:00 48.9508 18.8479 116° Southeast  Level Estimated
Sat 20:24:00 48.8943 19.0201 116° Southeast  Level Estimated
Sat 20:25:00 48.8375 19.1920 117° Southeast  Level Estimated
Sat 20:26:00 48.7804 19.3635 117° Southeast  Level Estimated
Sat 20:27:00 48.7231 19.5346 117° Southeast  Level Estimated
Sat 20:28:00 48.6656 19.7053 117° Southeast  Level Estimated
Sat 20:29:00 48.6078 19.8756 117° Southeast  Level Estimated
Sat 20:30:00 48.5498 20.0456 117° Southeast  Level Estimated
Sat 20:31:00 48.4915 20.2151 117° Southeast  Level Estimated
Sat 20:32:00 48.4329 20.3843 117° Southeast  Level Estimated
Sat 20:33:00 48.3742 20.5530 118° Southeast  Level Estimated
Sat 20:34:00 48.3151 20.7214 118° Southeast  Level Estimated
Sat 20:35:00 48.2558 20.8894 118° Southeast  Level Estimated
Sat 20:36:00 48.1963 21.0570 118° Southeast  Level Estimated
Sat 20:37:00 48.1365 21.2242 118° Southeast  Level Estimated
Sat 20:38:00 48.0765 21.3910 118° Southeast  Level Estimated
Sat 20:39:00 48.0163 21.5574 118° Southeast  Level Estimated
Sat 20:40:00 47.9558 21.7234 118° Southeast  Level Estimated
Sat 20:41:00 47.8951 21.8891 119° Southeast  Level Estimated
Sat 20:42:00 47.8341 22.0543 119° Southeast  Level Estimated
Sat 20:43:00 47.7729 22.2192 119° Southeast  Level Estimated
Sat 20:44:00 47.7114 22.3836 119° Southeast  Level Estimated
Sat 20:45:00 47.6498 22.5477 119° Southeast  Level Estimated
Sat 20:46:00 47.5879 22.7114 119° Southeast  Level Estimated
Sat 20:47:00 47.5257 22.8747 119° Southeast  Level Estimated
Sat 20:48:00 47.4634 23.0377 119° Southeast  Level Estimated
Sat 20:49:00 47.4008 23.2002 120° Southeast  Level Estimated
Sat 20:50:00 47.3379 23.3624 120° Southeast  Level Estimated
Sat 20:51:00 47.2953 23.4719 120° Southeast  Level Estimated
Sat 20:52:00 47.2525 23.5812 120° Southeast  Level Estimated
Sat 20:53:00 47.2097 23.6904 120° Southeast  Level Estimated
Sat 20:54:00 47.1667 23.7994 120° Southeast  Level Estimated
Sat 20:55:00 47.1236 23.9082 120° Southeast  Level Estimated
Sat 20:56:00 47.0805 24.0168 120° Southeast  Level Estimated
Sat 20:57:00 47.0372 24.1253 120° Southeast  Level Estimated
Sat 21:00:00 53.3316 -2.0096 100° East  Level Estimated
Sat 21:01:00 53.3165 -1.8686 100° East  Level Estimated
Sat 21:02:00 53.3011 -1.7276 100° East  Level Estimated
Sat 21:03:00 53.2856 -1.5867 100° East  Level Estimated
Sat 21:11:04 53.3590 -2.2640 230° Southwest 80 92  Level FlightAware ADS-B
Sat 21:11:34 53.3480 -2.2860 230° Southwest 154 177 720 Level FlightAware ADS-B
Sat 21:11:54 53.3400 -2.3030 232° Southwest 144 166 600 1,756 Climbing FlightAware ADS-B
Sat 21:12:15 53.3310 -2.3220 232° Southwest 141 162 1,200 1,043 Climbing FlightAware ADS-B
Sat 21:12:40 53.3200 -2.3460 233° Southwest 178 205 1,400 414 Climbing FlightAware ADS-B
Sat 21:12:44 53.3200 -2.3520 270° West 182 209 1,400 1,846 Level FlightAware ADS-B
Sat 21:13:06 53.3260 -2.3800 290° West 187 215 2,200 2,372 Climbing FlightAware ADS-B
Sat 21:13:27 53.3380 -2.4000 315° West 189 217 3,100 2,800 Climbing FlightAware ADS-B
Sat 21:13:36 53.3460 -2.4090 326° Northwest 193 222 3,600 2,526 Climbing FlightAware ADS-B
Sat 21:13:46 53.3540 -2.4150 336° Northwest 196 226 3,900 2,200 Climbing FlightAware ADS-B
Sat 21:14:06 53.3710 -2.4260 339° North 200 230 4,700 2,400 Climbing FlightAware ADS-B
Sat 21:14:31 53.3940 -2.4360 345° North 208 239 5,700 2,400 Climbing FlightAware ADS-B
Sat 21:14:36 53.3990 -2.4360 360° North 211 243 5,900 2,400 Climbing FlightAware ADS-B
Sat 21:14:41 53.4030 -2.4350 North 214 246 6,100 2,000 Climbing FlightAware ADS-B
Sat 21:14:51 53.4130 -2.4280 23° Northeast 231 266 6,400 1,600 Climbing FlightAware ADS-B
Sat 21:14:56 53.4180 -2.4240 25° Northeast 241 277 6,500 1,200 Climbing FlightAware ADS-B
Sat 21:15:01 53.4220 -2.4170 46° Northeast 253 291 6,600 1,200 Climbing FlightAware ADS-B
Sat 21:15:11 53.4280 -2.4000 59° Northeast 271 312 6,800 800 Climbing FlightAware ADS-B
Sat 21:15:16 53.4300 -2.3900 71° East 278 320 6,800 800 Level FlightAware ADS-B
Sat 21:15:26 53.4320 -2.3670 82° East 293 337 7,000 1,200 Climbing FlightAware ADS-B
Sat 21:15:36 53.4330 -2.3440 86° East 307 353 7,200 2,100 Climbing FlightAware ADS-B
Sat 21:16:06 53.4350 -2.2700 86° East 319 367 8,400 2,471 Climbing FlightAware ADS-B
Sat 21:16:10 53.4356 -2.2588 86° East 288 331 8,600 2,700 Climbing FlightAware UK
Sat 21:16:26 53.4370 -2.2210 86° East 325 374 9,300 2,353 Climbing FlightAware ADS-B
Sat 21:17:01 53.4400 -2.1310 86° East 341 392 10,600 2,053 Climbing FlightAware ADS-B
Sat 21:17:04 53.4395 -2.1222 86° East 308 354 10,600 1,029 Level FlightAware UK
Sat 21:17:36 53.4420 -2.0380 86° East 373 429 11,200 1,167 Climbing FlightAware ADS-B
Sat 21:17:40 53.4421 -2.0215 86° East 344 396 11,300 1,059 Climbing FlightAware UK
Sat 21:18:10 53.4442 -1.9281 86° East 376 433 11,800 1,000 Climbing FlightAware UK
Sat 21:18:16 53.4430 -1.9120 86° East 412 474 11,900 2,000 Climbing FlightAware ADS-B
Sat 21:18:46 53.4290 -1.8190 104° East 414 476 13,000 2,308 Climbing FlightAware ADS-B
Sat 21:19:21 53.4130 -1.7100 104° East 419 482 14,400 2,160 Climbing FlightAware ADS-B
Sat 21:20:01 53.3950 -1.5850 104° East 432 497 15,700 1,800 Climbing FlightAware ADS-B
Sat 21:20:31 53.3800 -1.4870 104° East 444 511 16,500 1,846 Climbing FlightAware ADS-B
Sat 21:20:40 53.3744 -1.4484 104° East 412 474 16,900 2,057 Climbing FlightAware UK
Sat 21:21:06 53.3630 -1.3730 104° East 452 520 17,700 1,800 Climbing FlightAware ADS-B
Sat 21:21:10 53.3592 -1.3475 104° East 420 483 17,800 1,886 Climbing FlightAware UK
Sat 21:21:41 53.3430 -1.2428 104° East 422 486 18,800 1,886 Climbing FlightAware UK
Sat 21:21:45 53.3420 -1.2340 104° East 463 533 18,900 1,667 Climbing FlightAware ADS-B
Sat 21:22:17 53.3241 -1.1179 104° East 430 495 19,800 1,714 Climbing FlightAware UK
Sat 21:22:20 53.3226 -1.1083 104° East 472 543 19,900 2,000 Climbing FlightAware ADS-B
Sat 21:22:50 53.3063 -1.0015 104° East 474 545 20,900 1,839 Climbing FlightAware ADS-B
Sat 21:23:22 53.2929 -0.8881 101° East 478 550 21,800 1,645 Climbing FlightAware ADS-B
Sat 21:23:52 53.2825 -0.7767 99° East 486 559 22,600 1,700 Climbing FlightAware ADS-B
Sat 21:24:22 53.2717 -0.6638 99° East 491 565 23,500 1,600 Climbing FlightAware ADS-B
Sat 21:24:52 53.2607 -0.5503 99° East 495 570 24,200 1,279 Climbing FlightAware ADS-B
Sat 21:25:23 53.2487 -0.4317 99° East 464 534 24,800 1,313 Climbing FlightAware UK
Sat 21:25:24 53.2486 -0.4282 99° East 506 582 24,900 1,875 Climbing FlightAware ADS-B
Sat 21:25:55 53.2366 -0.3082 99° East 509 586 25,800 1,742 Climbing FlightAware ADS-B
Sat 21:26:26 53.2249 -0.1915 99° East 510 587 26,700 1,770 Climbing FlightAware ADS-B
Sat 21:26:56 53.2129 -0.0739 100° East 509 586 27,600 1,500 Climbing FlightAware ADS-B
Sat 21:27:26 53.2009 0.0429 100° East 514 592 28,200 1,279 Climbing FlightAware ADS-B
Sat 21:27:57 53.1885 0.1620 100° East 518 596 28,900 1,180 Climbing FlightAware ADS-B
Sat 21:28:27 53.1761 0.2803 100° East 524 603 29,400 1,000 Climbing FlightAware ADS-B
Sat 21:28:57 53.1632 0.4018 100° East 527 606 29,900 1,000 Climbing FlightAware ADS-B
Sat 21:29:27 53.1505 0.5220 100° East 532 612 30,400 1,182 Climbing FlightAware ADS-B
Sat 21:30:03 53.1349 0.6662 100° East 533 613 31,200 1,364 Climbing FlightAware ADS-B
Sat 21:30:33 53.1216 0.7871 100° East 533 613 31,900 1,300 Climbing FlightAware ADS-B
Sat 21:31:03 53.1081 0.9087 100° East 532 612 32,500 1,377 Climbing FlightAware ADS-B
Sat 21:31:34 53.0947 1.0293 100° East 529 609 33,300 1,475 Climbing FlightAware ADS-B
Sat 21:32:04 53.0811 1.1500 101° East 528 608 34,000 1,300 Climbing FlightAware ADS-B
Sat 21:32:34 53.0674 1.2702 101° East 527 606 34,600 1,200 Climbing FlightAware ADS-B
Sat 21:33:04 53.0537 1.3896 101° East 527 606 35,200 900 Climbing FlightAware ADS-B
Sat 21:33:34 53.0398 1.5098 101° East 532 612 35,500 984 Climbing FlightAware ADS-B
Sat 21:34:05 53.0256 1.6315 101° East 526 605 36,200 1,869 Climbing FlightAware ADS-B
Sat 21:34:35 53.0115 1.7505 101° East 509 586 37,400 1,308 Climbing FlightAware ADS-B
Sat 21:35:23 52.9897 1.9331 101° East 510 587 37,900 512 Climbing FlightAware ADS-B
Sat 21:35:57 52.9741 2.0624 101° East 514 592 38,100 358 Climbing FlightAware ADS-B
Sat 21:36:30 52.9585 2.1920 101° East 480 552 38,300 400 Climbing FlightAware UK
Sat 21:36:42 52.9540 2.2280 101° East 518 596 38,400 429 Climbing FlightAware ADS-B (CYTZ)
Sat 21:37:12 52.9390 2.3520 101° East 517 595 38,600 507 Climbing FlightAware ADS-B (CYTZ)
Sat 21:37:53 52.9200 2.5020 102° East 516 594 39,000 324 Climbing FlightAware ADS-B
Sat 21:38:26 52.9040 2.6320 101° East 518 596 39,000  Level FlightAware ADS-B
Sat 21:39:02 52.8860 2.7720 102° East 519 597 39,000  Level FlightAware ADS-B
Sat 21:39:39 52.8670 2.9150 102° East 517 595 39,000  Level FlightAware ADS-B
Sat 21:39:43 52.8642 2.9397 102° East 480 552 39,000  Level FlightAware UK
Sat 21:40:11 52.8510 3.0410 102° East 516 594 39,000  Level FlightAware ADS-B
Sat 21:40:44 52.8340 3.1730 102° East 515 593 39,000  Level FlightAware ADS-B
Sat 21:40:49 52.8311 3.1929 102° East 478 550 39,000  Level FlightAware UK
Sat 21:41:11 52.8200 3.2730 102° East 515 593 39,000  Level FlightAware ADS-B
Sat 21:41:19 52.8159 3.3088 102° East 480 552 39,000  Level FlightAware UK
Sat 21:41:48 52.8020 3.4080 102° East 516 594 39,000  Level FlightAware ADS-B
Sat 21:41:55 52.7975 3.4469 102° East 480 552 39,000  Level FlightAware UK
Sat 21:42:25 52.7820 3.5570 102° East 516 594 39,000  Level FlightAware ADS-B
Sat 21:42:59 52.7640 3.6910 102° East 516 594 39,000  Level FlightAware ADS-B
Sat 21:43:33 52.7470 3.8160 102° East 516 594 39,000  Level FlightAware ADS-B
Sat 21:43:37 52.7449 3.8365 102° East 482 555 39,000  Level FlightAware UK
Sat 21:44:07 52.7289 3.9516 102° East 482 555 39,000  Level FlightAware UK
Sat 21:44:08 52.7290 3.9500 102° East 516 594 39,000  Level FlightAware ADS-B
Sat 21:44:44 52.7100 4.0860 103° East 517 595 39,000  Level FlightAware ADS-B
Sat 21:45:22 52.6890 4.2290 104° East 517 595 39,000  Level FlightAware ADS-B
Sat 21:45:54 52.6710 4.3550 103° East 517 595 39,000  Level FlightAware ADS-B
Sat 21:46:30 52.6520 4.4950 103° East 516 594 39,000  Level FlightAware ADS-B
Sat 21:47:06 52.6320 4.6300 104° East 516 594 39,000  Level FlightAware ADS-B
Sat 21:47:38 52.6140 4.7530 104° East 517 595 39,000  Level FlightAware ADS-B
Sat 21:47:38 52.6140 4.7530 106° East 517 595 39,000  Level FlightAware ADS-B
Sat 21:50:00 52.5586 5.0738 106° East  Level Estimated
Sat 21:52:00 52.5111 5.3443 106° East  Level Estimated
Sat 21:53:00 52.4871 5.4794 106° East  Level Estimated
Sat 21:54:00 52.4630 5.6142 106° East  Level Estimated
Sat 21:55:00 52.4387 5.7490 106° East  Level Estimated
Sat 21:56:00 52.4143 5.8836 107° East  Level Estimated
Sat 21:57:00 52.3897 6.0180 107° East  Level Estimated
Sat 21:58:00 52.3649 6.1523 107° East  Level Estimated
Sat 21:59:00 52.3401 6.2864 107° East  Level Estimated
Sat 22:00:00 52.3150 6.4204 107° East  Level Estimated
Sat 22:01:00 52.2898 6.5542 107° East  Level Estimated
Sat 22:02:00 52.2645 6.6879 107° East  Level Estimated
Sat 22:03:00 52.2390 6.8214 107° East  Level Estimated
Sat 22:04:00 52.2133 6.9548 107° East  Level Estimated
Sat 22:05:00 52.1875 7.0880 107° East  Level Estimated
Sat 22:06:00 52.1616 7.2210 108° East  Level Estimated
Sat 22:07:00 52.1355 7.3540 108° East  Level Estimated
Sat 22:08:00 52.1092 7.4867 108° East  Level Estimated
Sat 22:09:00 52.0828 7.6193 108° East  Level Estimated
Sat 22:10:00 52.0563 7.7517 108° East  Level Estimated
Sat 22:11:00 52.0296 7.8840 108° East  Level Estimated
Sat 22:12:00 52.0028 8.0161 108° East  Level Estimated
Sat 22:13:00 51.9758 8.1481 108° East  Level Estimated
Sat 22:14:00 51.9486 8.2799 108° East  Level Estimated
Sat 22:15:00 51.9213 8.4115 109° East  Level Estimated
Sat 22:16:00 51.8939 8.5430 109° East  Level Estimated
Sat 22:17:00 51.8663 8.6743 109° East  Level Estimated
Sat 22:18:00 51.8386 8.8055 109° East  Level Estimated
Sat 22:19:00 51.8108 8.9365 109° East  Level Estimated
Sat 22:20:00 51.7827 9.0673 109° East  Level Estimated
Sat 22:21:00 51.7546 9.1980 109° East  Level Estimated
Sat 22:22:00 51.7263 9.3285 109° East  Level Estimated
Sat 22:23:00 51.6978 9.4588 109° East  Level Estimated
Sat 22:24:00 51.6693 9.5890 109° East  Level Estimated
Sat 22:25:00 51.6405 9.7190 110° East  Level Estimated
Sat 22:26:00 51.6116 9.8489 110° East  Level Estimated
Sat 22:27:00 51.5826 9.9786 110° East  Level Estimated
Sat 22:28:00 51.5535 10.1081 110° East  Level Estimated
Sat 22:29:00 51.5242 10.2374 110° East  Level Estimated
Sat 22:30:00 51.4947 10.3666 110° East  Level Estimated
Sat 22:31:00 51.4651 10.4957 110° East  Level Estimated
Sat 22:32:00 51.4354 10.6245 110° East  Level Estimated
Sat 22:33:00 51.4055 10.7532 110° East  Level Estimated
Sat 22:34:00 51.3755 10.8817 110° East  Level Estimated
Sat 22:35:00 51.3453 11.0100 111° Southeast  Level Estimated
Sat 22:36:00 51.3151 11.1382 111° Southeast  Level Estimated
Sat 22:37:00 51.2846 11.2662 111° Southeast  Level Estimated
Sat 22:38:00 51.2541 11.3941 111° Southeast  Level Estimated
Sat 22:39:00 51.2234 11.5217 111° Southeast  Level Estimated
Sat 22:40:00 51.1925 11.6492 111° Southeast  Level Estimated
Sat 22:41:00 51.1615 11.7766 111° Southeast  Level Estimated
Sat 22:42:00 51.1304 11.9037 111° Southeast  Level Estimated
Sat 22:43:00 51.0991 12.0307 111° Southeast  Level Estimated
Sat 22:44:00 51.0677 12.1575 111° Southeast  Level Estimated
Sat 22:45:00 51.0362 12.2842 112° Southeast  Level Estimated
Sat 22:46:00 51.0045 12.4106 112° Southeast  Level Estimated
Sat 22:47:00 50.9727 12.5369 112° Southeast  Level Estimated
Sat 22:48:00 50.9408 12.6630 112° Southeast  Level Estimated
Sat 22:49:00 50.9087 12.7890 112° Southeast  Level Estimated
Sat 22:50:00 50.8764 12.9148 112° Southeast  Level Estimated
Sat 22:51:00 50.8441 13.0403 112° Southeast  Level Estimated
Sat 22:52:00 50.8116 13.1658 112° Southeast  Level Estimated
Sat 22:53:00 50.7790 13.2910 112° Southeast  Level Estimated
Sat 22:54:00 50.7462 13.4161 112° Southeast  Level Estimated
Sat 22:55:00 50.7133 13.5410 113° Southeast  Level Estimated
Sat 22:56:00 50.6803 13.6657 113° Southeast  Level Estimated
Sat 22:57:00 50.6472 13.7903 113° Southeast  Level Estimated
Sat 22:58:00 50.6139 13.9146 113° Southeast  Level Estimated
Sat 22:59:00 50.5804 14.0388 113° Southeast  Level Estimated
Sat 23:00:00 50.5469 14.1628 113° Southeast  Level Estimated
Sat 23:01:00 50.5132 14.2867 113° Southeast  Level Estimated
Sat 23:02:00 50.4794 14.4103 113° Southeast  Level Estimated
Sat 23:03:00 50.4455 14.5338 113° Southeast  Level Estimated
Sat 23:04:00 50.4114 14.6571 113° Southeast  Level Estimated
Sat 23:05:00 50.3772 14.7803 113° Southeast  Level Estimated
Sat 23:06:00 50.3428 14.9032 114° Southeast  Level Estimated
Sat 23:07:00 50.3084 15.0260 114° Southeast  Level Estimated
Sat 23:08:00 50.2738 15.1486 114° Southeast  Level Estimated
Sat 23:09:00 50.2391 15.2710 114° Southeast  Level Estimated
Sat 23:10:00 50.2042 15.3933 114° Southeast  Level Estimated
Sat 23:11:00 50.1692 15.5153 114° Southeast  Level Estimated
Sat 23:12:00 50.1341 15.6372 114° Southeast  Level Estimated
Sat 23:13:00 50.0989 15.7589 114° Southeast  Level Estimated
Sat 23:14:00 50.0635 15.8804 114° Southeast  Level Estimated
Sat 23:15:00 50.0280 16.0018 114° Southeast  Level Estimated
Sat 23:16:00 49.9924 16.1230 115° Southeast  Level Estimated
Sat 23:17:00 49.9567 16.2439 115° Southeast  Level Estimated
Sat 23:18:00 49.9208 16.3648 115° Southeast  Level Estimated
Sat 23:19:00 49.8848 16.4854 115° Southeast  Level Estimated
Sat 23:20:00 49.8487 16.6058 115° Southeast  Level Estimated
Sat 23:21:00 49.8124 16.7261 115° Southeast  Level Estimated
Sat 23:22:00 49.7761 16.8462 115° Southeast  Level Estimated
Sat 23:23:00 49.7396 16.9661 115° Southeast  Level Estimated
Sat 23:24:00 49.7030 17.0858 115° Southeast  Level Estimated
Sat 23:25:00 49.6662 17.2054 115° Southeast  Level Estimated
Sat 23:26:00 49.6294 17.3248 115° Southeast  Level Estimated
Sat 23:27:00 49.5924 17.4439 116° Southeast  Level Estimated
Sat 23:28:00 49.5553 17.5629 116° Southeast  Level Estimated
Sat 23:29:00 49.5181 17.6817 116° Southeast  Level Estimated
Sat 23:30:00 49.4807 17.8004 116° Southeast  Level Estimated
Sat 23:31:00 49.4432 17.9188 116° Southeast  Level Estimated
Sat 23:32:00 49.4057 18.0371 116° Southeast  Level Estimated
Sat 23:33:00 49.3679 18.1552 116° Southeast  Level Estimated
Sat 23:34:00 49.3301 18.2731 116° Southeast  Level Estimated
Sat 23:35:00 49.2922 18.3909 116° Southeast  Level Estimated
Sat 23:36:00 49.2541 18.5084 116° Southeast  Level Estimated
Sat 23:37:00 49.2159 18.6258 116° Southeast  Level Estimated
Sat 23:38:00 49.1776 18.7430 117° Southeast  Level Estimated
Sat 23:39:00 49.1392 18.8600 117° Southeast  Level Estimated
Sat 23:40:00 49.1006 18.9768 117° Southeast  Level Estimated
Sat 23:41:00 49.0620 19.0935 117° Southeast  Level Estimated
Sat 23:42:00 49.0232 19.2099 117° Southeast  Level Estimated
Sat 23:43:00 48.9843 19.3262 117° Southeast  Level Estimated
Sat 23:44:00 48.9453 19.4423 117° Southeast  Level Estimated
Sat 23:45:00 48.9061 19.5582 117° Southeast  Level Estimated
Sat 23:46:00 48.8669 19.6740 117° Southeast  Level Estimated
Sat 23:47:00 48.8275 19.7895 117° Southeast  Level Estimated
Sat 23:48:00 48.7881 19.9049 117° Southeast  Level Estimated
Sat 23:49:00 48.7485 20.0201 117° Southeast  Level Estimated
Sat 23:50:00 48.7088 20.1351 118° Southeast  Level Estimated
Sat 23:51:00 48.6689 20.2499 118° Southeast  Level Estimated
Sat 23:52:00 48.6290 20.3646 118° Southeast  Level Estimated
Sat 23:53:00 48.5890 20.4791 118° Southeast  Level Estimated
Sat 23:54:00 48.5488 20.5933 118° Southeast  Level Estimated
Sat 23:55:00 48.5085 20.7074 118° Southeast  Level Estimated
Sat 23:56:00 48.4681 20.8214 118° Southeast  Level Estimated
Sat 23:57:00 48.4276 20.9351 118° Southeast  Level Estimated
Sat 23:58:00 48.3870 21.0487 118° Southeast  Level Estimated
Sat 23:59:00 48.3463 21.1620 118° Southeast  Level Estimated
Sun 00:00:00 48.3055 21.2752 118° Southeast  Level Estimated
Sun 00:01:00 48.2645 21.3883 119° Southeast  Level Estimated
Sun 00:02:00 48.2235 21.5011 119° Southeast  Level Estimated
Sun 00:03:00 48.1823 21.6137 119° Southeast  Level Estimated
Sun 00:04:00 48.1411 21.7262 119° Southeast  Level Estimated
Sun 00:05:00 48.0997 21.8385 119° Southeast  Level Estimated
Sun 00:06:00 48.0582 21.9506 119° Southeast  Level Estimated
Sun 00:07:00 48.0166 22.0625 119° Southeast  Level Estimated
Sun 00:08:00 47.9749 22.1743 119° Southeast  Level Estimated
Sun 00:09:00 47.9331 22.2859 119° Southeast  Level Estimated
Sun 00:10:00 47.8911 22.3972 119° Southeast  Level Estimated
Sun 00:11:00 47.8491 22.5085 119° Southeast  Level Estimated
Sun 00:12:00 47.8070 22.6195 119° Southeast  Level Estimated
Sun 00:13:00 47.7647 22.7303 120° Southeast  Level Estimated
Sun 00:14:00 47.7224 22.8410 120° Southeast  Level Estimated
Sun 00:15:00 47.6799 22.9515 120° Southeast  Level Estimated
Sun 00:16:00 47.6373 23.0618 120° Southeast  Level Estimated
Sun 00:17:00 47.5947 23.1719 120° Southeast  Level Estimated
Sun 00:18:00 47.5519 23.2819 120° Southeast  Level Estimated
Sun 00:19:00 47.5090 23.3917 120° Southeast  Level Estimated
Sun 00:20:00 47.4660 23.5012 120° Southeast  Level Estimated
Sun 00:21:00 47.4229 23.6107 120° Southeast  Level Estimated
Sun 00:22:00 47.3797 23.7199 120° Southeast  Level Estimated
Sun 00:23:00 47.3364 23.8289 120° Southeast  Level Estimated
Sun 00:24:00 47.2930 23.9378 120° Southeast  Level Estimated
Sun 00:25:00 47.2495 24.0465 120° Southeast  Level Estimated
Sun 00:26:00 47.2059 24.1550 121° Southeast  Level Estimated
Sun 00:27:00 47.1622 24.2633 121° Southeast  Level Estimated
Sun 00:28:00 47.1184 24.3715 121° Southeast  Level Estimated
Sun 00:29:00 47.0745 24.4795 121° Southeast  Level Estimated
Sun 00:30:00 47.0304 24.5873 121° Southeast  Level Estimated
Sun 00:31:00 46.9863 24.6949 121° Southeast  Level Estimated
Sun 00:32:00 46.9421 24.8024 121° Southeast  Level Estimated
Sun 00:33:00 46.8978 24.9096 121° Southeast  Level Estimated
Sun 00:34:00 46.8534 25.0167 121° Southeast  Level Estimated
Sun 00:35:00 46.8088 25.1236 121° Southeast  Level Estimated
Sun 00:36:00 46.7642 25.2304 121° Southeast  Level Estimated
Sun 00:37:00 46.7195 25.3369 121° Southeast  Level Estimated
Sun 00:38:00 46.6747 25.4433 122° Southeast  Level Estimated
Sun 00:39:00 46.6298 25.5495 122° Southeast  Level Estimated
Sun 00:40:00 46.5848 25.6556 122° Southeast  Level Estimated
Sun 00:41:00 46.5397 25.7614 122° Southeast  Level Estimated
Sun 00:42:00 46.4945 25.8671 122° Southeast  Level Estimated
Sun 00:43:00 46.4492 25.9726 122° Southeast  Level Estimated
Sun 00:44:00 46.4038 26.0779 122° Southeast  Level Estimated
Sun 00:45:00 46.3583 26.1831 122° Southeast  Level Estimated
Sun 00:46:00 46.3127 26.2880 122° Southeast  Level Estimated
Sun 00:47:00 46.2670 26.3928 122° Southeast  Level Estimated
Sun 00:48:00 46.2212 26.4975 122° Southeast  Level Estimated
Sun 00:49:00 46.1753 26.6019 122° Southeast  Level Estimated
Sun 00:50:00 46.1293 26.7062 122° Southeast  Level Estimated
Sun 00:51:00 46.0833 26.8103 123° Southeast  Level Estimated
Sun 00:52:00 46.0371 26.9142 123° Southeast  Level Estimated
Sun 00:53:00 45.9909 27.0180 123° Southeast  Level Estimated
Sun 00:54:00 45.9445 27.1216 123° Southeast  Level Estimated
Sun 00:55:00 45.8981 27.2250 123° Southeast  Level Estimated
Sun 00:56:00 45.8515 27.3282 123° Southeast  Level Estimated
Sun 00:57:00 45.8049 27.4313 123° Southeast  Level Estimated
Sun 00:58:00 45.7582 27.5342 123° Southeast  Level Estimated
Sun 00:59:00 45.7114 27.6369 123° Southeast  Level Estimated
Sun 01:00:00 45.6645 27.7394 123° Southeast  Level Estimated
Sun 01:01:00 45.6175 27.8418 123° Southeast  Level Estimated
Sun 01:02:00 45.5704 27.9440 123° Southeast  Level Estimated
Sun 01:03:00 45.5232 28.0460 123° Southeast  Level Estimated
Sun 01:04:00 45.4759 28.1479 123° Southeast  Level Estimated
Sun 01:05:00 45.4286 28.2496 124° Southeast  Level Estimated
Sun 01:06:00 45.3811 28.3511 124° Southeast  Level Estimated
Sun 01:07:00 45.3336 28.4525 124° Southeast  Level Estimated
Sun 01:08:00 45.2859 28.5536 124° Southeast  Level Estimated
Sun 01:09:00 45.2382 28.6546 124° Southeast  Level Estimated
Sun 01:10:00 45.1904 28.7555 124° Southeast  Level Estimated
Sun 01:11:00 45.1425 28.8562 124° Southeast  Level Estimated
Sun 01:12:00 45.0945 28.9567 124° Southeast  Level Estimated
Sun 01:13:00 45.0464 29.0570 124° Southeast  Level Estimated
Sun 01:14:00 44.9983 29.1572 124° Southeast  Level Estimated
Sun 01:15:00 44.9500 29.2571 124° Southeast  Level Estimated
Sun 01:16:00 44.9017 29.3570 124° Southeast  Level Estimated
Sun 01:17:00 44.8533 29.4566 124° Southeast  Level Estimated
Sun 01:18:00 44.8048 29.5561 124° Southeast  Level Estimated
Sun 01:19:00 44.7562 29.6554 125° Southeast  Level Estimated
Sun 01:20:00 44.7075 29.7546 125° Southeast  Level Estimated
Sun 01:21:00 44.6587 29.8536 125° Southeast  Level Estimated
Sun 01:22:00 44.6099 29.9524 125° Southeast  Level Estimated
Sun 01:23:00 44.5609 30.0511 125° Southeast  Level Estimated
Sun 01:24:00 44.5119 30.1496 125° Southeast  Level Estimated
Sun 01:25:00 44.4628 30.2479 125° Southeast  Level Estimated
Sun 01:26:00 44.4136 30.3460 125° Southeast  Level Estimated
Sun 01:27:00 44.3643 30.4440 125° Southeast  Level Estimated
Sun 01:28:00 44.3150 30.5419 125° Southeast  Level Estimated
Sun 01:29:00 44.2655 30.6395 125° Southeast  Level Estimated
Sun 01:30:00 44.2160 30.7370 125° Southeast  Level Estimated
Sun 01:31:00 44.1664 30.8344 125° Southeast  Level Estimated
Sun 01:32:00 44.1167 30.9315 125° Southeast  Level Estimated
Sun 01:33:00 44.0669 31.0285 126° Southeast  Level Estimated
Sun 01:34:00 44.0171 31.1254 126° Southeast  Level Estimated
Sun 01:35:00 43.9671 31.2221 126° Southeast  Level Estimated
Sun 01:36:00 43.9171 31.3186 126° Southeast  Level Estimated
Sun 01:37:00 43.8670 31.4149 126° Southeast  Level Estimated
Sun 01:38:00 43.8168 31.5112 126° Southeast  Level Estimated
Sun 01:39:00 43.7666 31.6072 126° Southeast  Level Estimated
Sun 01:40:00 43.7162 31.7031 126° Southeast  Level Estimated
Sun 01:41:00 43.6658 31.7988 126° Southeast  Level Estimated
Sun 01:42:00 43.6153 31.8943 126° Southeast  Level Estimated
Sun 01:43:00 43.5647 31.9897 126° Southeast  Level Estimated
Sun 01:44:00 43.5141 32.0849 126° Southeast  Level Estimated
Sun 01:45:00 43.4633 32.1800 126° Southeast  Level Estimated
Sun 01:46:00 43.4125 32.2749 126° Southeast  Level Estimated
Sun 01:47:00 43.3616 32.3697 126° Southeast  Level Estimated
Sun 01:48:00 43.3106 32.4642 127° Southeast  Level Estimated
Sun 01:49:00 43.2596 32.5587 127° Southeast  Level Estimated
Sun 01:50:00 43.2085 32.6530 127° Southeast  Level Estimated
Sun 01:51:00 43.1573 32.7471 127° Southeast  Level Estimated
Sun 01:52:00 43.1060 32.8410 127° Southeast  Level Estimated
Sun 01:53:00 43.0546 32.9348 127° Southeast  Level Estimated
Sun 01:54:00 43.0032 33.0285 127° Southeast  Level Estimated
Sun 01:55:00 42.9517 33.1220 127° Southeast  Level Estimated
Sun 01:56:00 42.9001 33.2153 127° Southeast  Level Estimated
Sun 01:57:00 42.8484 33.3085 127° Southeast  Level Estimated
Sun 01:58:00 42.7967 33.4015 127° Southeast  Level Estimated
Sun 01:59:00 42.7449 33.4944 127° Southeast  Level Estimated
Sun 02:00:00 42.6930 33.5871 127° Southeast  Level Estimated
Sun 02:01:00 42.6410 33.6796 127° Southeast  Level Estimated
Sun 02:02:00 42.5890 33.7720 127° Southeast  Level Estimated
Sun 02:03:00 42.5369 33.8643 127° Southeast  Level Estimated
Sun 02:04:00 42.4847 33.9564 128° Southeast  Level Estimated
Sun 02:05:00 42.4324 34.0483 128° Southeast  Level Estimated
Sun 02:06:00 42.3801 34.1401 128° Southeast  Level Estimated
Sun 02:07:00 42.3277 34.2317 128° Southeast  Level Estimated
Sun 02:08:00 42.2752 34.3232 128° Southeast  Level Estimated
Sun 02:09:00 42.2226 34.4146 128° Southeast  Level Estimated
Sun 02:10:00 42.1700 34.5057 128° Southeast  Level Estimated
Sun 02:11:00 42.1173 34.5967 128° Southeast  Level Estimated
Sun 02:12:00 42.0646 34.6876 128° Southeast  Level Estimated
Sun 02:13:00 42.0117 34.7783 128° Southeast  Level Estimated
Sun 02:14:00 41.9588 34.8689 128° Southeast  Level Estimated
Sun 02:15:00 41.9058 34.9593 128° Southeast  Level Estimated
Sun 02:16:00 41.8528 35.0496 128° Southeast  Level Estimated
Sun 02:17:00 41.7997 35.1397 128° Southeast  Level Estimated
Sun 02:18:00 41.7465 35.2297 128° Southeast  Level Estimated
Sun 02:19:00 41.6932 35.3195 128° Southeast  Level Estimated
Sun 02:20:00 41.6399 35.4092 128° Southeast  Level Estimated
Sun 02:21:00 41.5865 35.4987 129° Southeast  Level Estimated
Sun 02:22:00 41.5330 35.5881 129° Southeast  Level Estimated
Sun 02:23:00 41.4795 35.6773 129° Southeast  Level Estimated
Sun 02:24:00 41.4259 35.7664 129° Southeast  Level Estimated
Sun 02:25:00 41.3722 35.8553 129° Southeast  Level Estimated
Sun 02:26:00 41.3184 35.9441 129° Southeast  Level Estimated
Sun 02:27:00 41.2646 36.0327 129° Southeast  Level Estimated
Sun 02:28:00 41.2107 36.1213 129° Southeast  Level Estimated
Sun 02:29:00 41.1568 36.2096 129° Southeast  Level Estimated
Sun 02:30:00 41.1028 36.2978 129° Southeast  Level Estimated
Sun 02:31:00 41.0487 36.3859 129° Southeast  Level Estimated
Sun 02:32:00 40.9945 36.4738 129° Southeast  Level Estimated
Sun 02:33:00 40.9403 36.5615 129° Southeast  Level Estimated
Sun 02:34:00 40.8860 36.6492 129° Southeast  Level Estimated
Sun 02:35:00 40.8317 36.7366 129° Southeast  Level Estimated
Sun 02:36:00 40.7772 36.8240 129° Southeast  Level Estimated
Sun 02:37:00 40.7228 36.9112 129° Southeast  Level Estimated
Sun 02:38:00 40.6682 36.9982 130° Southeast  Level Estimated
Sun 02:39:00 40.6136 37.0852 130° Southeast  Level Estimated
Sun 02:40:00 40.5589 37.1719 130° Southeast  Level Estimated
Sun 02:41:00 40.5042 37.2585 130° Southeast  Level Estimated
Sun 02:42:00 40.4494 37.3450 130° Southeast  Level Estimated
Sun 02:43:00 40.3945 37.4314 130° Southeast  Level Estimated
Sun 02:44:00 40.3396 37.5176 130° Southeast  Level Estimated
Sun 02:45:00 40.2846 37.6036 130° Southeast  Level Estimated
Sun 02:46:00 40.2295 37.6896 130° Southeast  Level Estimated
Sun 02:47:00 40.1744 37.7753 130° Southeast  Level Estimated
Sun 02:48:00 40.1192 37.8610 130° Southeast  Level Estimated
Sun 02:49:00 40.0639 37.9465 130° Southeast  Level Estimated
Sun 02:50:00 40.0086 38.0319 130° Southeast  Level Estimated
Sun 02:51:00 39.9532 38.1171 130° Southeast  Level Estimated
Sun 02:52:00 39.8978 38.2022 130° Southeast  Level Estimated
Sun 02:53:00 39.8423 38.2871 130° Southeast  Level Estimated
Sun 02:54:00 39.7867 38.3719 130° Southeast  Level Estimated
Sun 02:55:00 39.7311 38.4566 130° Southeast  Level Estimated
Sun 02:56:00 39.6754 38.5412 131° Southeast  Level Estimated
Sun 02:57:00 39.6197 38.6256 131° Southeast  Level Estimated
Sun 02:58:00 39.5638 38.7099 131° Southeast  Level Estimated
Sun 02:59:00 39.5080 38.7940 131° Southeast  Level Estimated
Sun 03:00:00 39.4520 38.8780 131° Southeast  Level Estimated
Sun 03:01:00 39.3960 38.9618 131° Southeast  Level Estimated
Sun 03:02:00 39.3400 39.0456 131° Southeast  Level Estimated
Sun 03:03:00 39.2839 39.1292 131° Southeast  Level Estimated
Sun 03:04:00 39.2277 39.2126 131° Southeast  Level Estimated
Sun 03:05:00 39.1715 39.2960 131° Southeast  Level Estimated
Sun 03:06:00 39.1152 39.3791 131° Southeast  Level Estimated
Sun 03:07:00 39.0588 39.4622 131° Southeast  Level Estimated
Sun 03:08:00 39.0024 39.5451 131° Southeast  Level Estimated
Sun 03:09:00 38.9460 39.6279 131° Southeast  Level Estimated
Sun 03:10:00 38.8894 39.7106 131° Southeast  Level Estimated
Sun 03:11:00 38.8329 39.7931 131° Southeast  Level Estimated
Sun 03:12:00 38.7762 39.8755 131° Southeast  Level Estimated
Sun 03:13:00 38.7195 39.9578 131° Southeast  Level Estimated
Sun 03:14:00 38.6628 40.0399 131° Southeast  Level Estimated
Sun 03:15:00 38.6059 40.1219 132° Southeast  Level Estimated
Sun 03:16:00 38.5491 40.2038 132° Southeast  Level Estimated
Sun 03:17:00 38.4921 40.2856 132° Southeast  Level Estimated
Sun 03:18:00 38.4352 40.3672 132° Southeast  Level Estimated
Sun 03:19:00 38.3781 40.4487 132° Southeast  Level Estimated
Sun 03:20:00 38.3210 40.5300 132° Southeast  Level Estimated
Sun 03:21:00 38.2639 40.6113 132° Southeast  Level Estimated
Sun 03:22:00 38.2067 40.6924 132° Southeast  Level Estimated
Sun 03:23:00 38.1494 40.7734 132° Southeast  Level Estimated
Sun 03:24:00 38.0921 40.8542 132° Southeast  Level Estimated
Sun 03:25:00 38.0347 40.9350 132° Southeast  Level Estimated
Sun 03:26:00 37.9773 41.0155 132° Southeast  Level Estimated
Sun 03:27:00 37.9198 41.0960 132° Southeast  Level Estimated
Sun 03:28:00 37.8622 41.1764 132° Southeast  Level Estimated
Sun 03:29:00 37.8046 41.2566 132° Southeast  Level Estimated
Sun 03:30:00 37.7470 41.3367 132° Southeast  Level Estimated
Sun 03:31:00 37.6893 41.4167 132° Southeast  Level Estimated
Sun 03:32:00 37.6315 41.4965 132° Southeast  Level Estimated
Sun 03:33:00 37.5737 41.5762 132° Southeast  Level Estimated
Sun 03:34:00 37.5158 41.6558 132° Southeast  Level Estimated
Sun 03:35:00 37.4579 41.7353 133° Southeast  Level Estimated
Sun 03:36:00 37.3999 41.8147 133° Southeast  Level Estimated
Sun 03:37:00 37.3419 41.8939 133° Southeast  Level Estimated
Sun 03:38:00 37.2838 41.9730 133° Southeast  Level Estimated
Sun 03:39:00 37.2257 42.0520 133° Southeast  Level Estimated
Sun 03:40:00 37.1675 42.1309 133° Southeast  Level Estimated
Sun 03:41:00 37.1093 42.2096 133° Southeast  Level Estimated
Sun 03:42:00 37.0510 42.2882 133° Southeast  Level Estimated
Sun 03:43:00 36.9927 42.3667 133° Southeast  Level Estimated
Sun 03:44:00 36.9343 42.4451 133° Southeast  Level Estimated
Sun 03:45:00 36.8758 42.5234 133° Southeast  Level Estimated
Sun 03:46:00 36.8173 42.6015 133° Southeast  Level Estimated
Sun 03:47:00 36.7588 42.6796 133° Southeast  Level Estimated
Sun 03:48:00 36.7002 42.7575 133° Southeast  Level Estimated
Sun 03:49:00 36.6415 42.8352 133° Southeast  Level Estimated
Sun 03:50:00 36.5829 42.9129 133° Southeast  Level Estimated

Login

Don't have an account? Register now (free) for customized features, flight alerts, and more!